Time;durP1;ratioP1;P1;durP2;ratioP2;P2;SDS_P1;SDS_P2;PMS_P1;PMS_P2;Temp;Humidity;BMP_temperature;BMP_pressure;BME280_temperature;BME280_humidity;BME280_pressure;Samples;Min_cycle;Max_cycle;Signal;HPM_P1;HPM_P2
2023/03/01 00:04:35;;;;;;;4.20;3.72;;;;;;;15.97;32.96;97078.63;10335967;28;20600;-31
2023/03/01 00:09:36;;;;;;;6.22;4.00;;;;;;;16.06;38.17;97087.19;10337653;28;20444;-31
2023/03/01 00:14:37;;;;;;;4.93;3.63;;;;;;;16.03;38.78;97088.81;10338774;28;20096;-31
2023/03/01 00:19:37;;;;;;;4.13;3.43;;;;;;;16.03;37.47;97084.59;10335580;28;20036;-31
2023/03/01 00:24:37;;;;;;;5.30;4.30;;;;;;;16.01;35.65;97078.69;10336450;28;20042;-31
2023/03/01 00:29:38;;;;;;;6.57;5.03;;;;;;;16.04;35.86;97088.81;10336602;28;20129;-31
2023/03/01 00:34:38;;;;;;;3.80;3.40;;;;;;;16.01;35.89;97080.34;10335282;28;20042;-31
2023/03/01 00:39:39;;;;;;;7.13;4.13;;;;;;;16.03;36.17;97071.97;10325813;28;20034;-31
2023/03/01 00:44:39;;;;;;;5.50;3.30;;;;;;;15.99;37.04;97056.75;10351907;28;20554;-31
2023/03/01 00:49:40;;;;;;;4.43;4.00;;;;;;;15.99;35.79;97057.63;10317088;28;20521;-31
2023/03/01 00:54:40;;;;;;;5.10;3.97;;;;;;;16.01;36.02;97055.97;10326627;28;20506;-32
2023/03/01 00:59:40;;;;;;;5.30;4.23;;;;;;;15.99;36.03;97065.19;10326220;28;20379;-32
2023/03/01 01:04:41;;;;;;;5.13;3.73;;;;;;;15.97;35.58;97054.22;10327639;28;20507;-32
2023/03/01 01:09:41;;;;;;;5.63;3.88;;;;;;;15.96;35.33;97052.50;10342642;28;20034;-31
2023/03/01 01:14:42;;;;;;;3.38;3.03;;;;;;;15.95;35.28;97032.31;10340309;28;20042;-31
2023/03/01 01:19:43;;;;;;;4.60;3.50;;;;;;;15.95;34.64;97039.88;10334443;28;20085;-31
2023/03/01 01:24:44;;;;;;;6.40;3.75;;;;;;;15.95;35.29;97044.91;10333676;28;20058;-31
2023/03/01 01:29:45;;;;;;;5.00;4.07;;;;;;;15.96;35.52;97039.03;10318906;28;20038;-31
2023/03/01 01:34:46;;;;;;;5.97;3.33;;;;;;;16.00;37.73;97034.06;10328999;28;20465;-31
2023/03/01 01:39:46;;;;;;;4.70;3.40;;;;;;;16.03;37.93;97024.00;10324663;28;20498;-31
2023/03/01 01:44:47;;;;;;;2.90;2.65;;;;;;;15.97;37.02;97023.94;10325769;28;20118;-31
2023/03/01 01:49:55;;;;;;;4.03;3.55;;;;;;;15.94;34.59;97012.94;10349649;28;20042;-31
2023/03/01 01:55:08;;;;;;;4.47;3.95;;;;;;;15.89;33.68;97015.38;10324944;28;20042;-31
2023/03/01 02:00:13;;;;;;;5.22;3.88;;;;;;;15.91;34.31;97008.69;10333692;28;20105;-31
2023/03/01 02:05:28;;;;;;;4.05;3.60;;;;;;;15.92;34.88;96992.69;10341960;28;20030;-38
2023/03/01 02:10:33;;;;;;;4.65;3.50;;;;;;;15.90;34.69;96989.31;10340170;28;20038;-31
2023/03/01 02:15:36;;;;;;;4.57;4.18;;;;;;;15.90;34.59;96994.38;10338110;28;20037;-32
2023/03/01 02:20:54;;;;;;;4.40;4.00;;;;;;;15.89;35.29;96997.72;10323067;28;20450;-30
2023/03/01 02:26:08;;;;;;;4.90;4.05;;;;;;;15.90;34.53;96993.50;10340742;28;20030;-31
2023/03/01 02:36:37;;;;;;;6.68;4.10;;;;;;;15.87;34.80;96984.19;10363386;28;20101;-32
2023/03/01 02:41:38;;;;;;;4.85;3.90;;;;;;;15.86;34.04;96984.19;10342062;28;20113;-31
2023/03/01 02:46:44;;;;;;;4.35;3.67;;;;;;;15.84;34.46;96975.72;10323323;28;20386;-31
2023/03/01 02:51:57;;;;;;;3.97;3.38;;;;;;;15.84;34.99;96969.03;10353469;28;20037;-31
2023/03/01 02:56:59;;;;;;;4.20;3.05;;;;;;;15.93;37.10;96966.63;10351239;28;20021;-31
2023/03/01 03:02:01;;;;;;;4.80;3.55;;;;;;;15.92;37.00;96959.88;10326265;28;20035;-30
2023/03/01 03:07:01;;;;;;;3.78;3.22;;;;;;;15.92;37.32;96959.88;10339349;28;20038;-31
2023/03/01 03:12:02;;;;;;;4.63;3.80;;;;;;;15.89;36.76;96953.94;10334962;28;20037;-31
2023/03/01 03:17:06;;;;;;;3.95;3.55;;;;;;;15.87;35.11;96953.91;10337989;28;20022;-31
2023/03/01 03:22:08;;;;;;;4.03;3.30;;;;;;;15.85;36.21;96952.22;10320253;28;20120;-31
2023/03/01 03:27:09;;;;;;;4.82;3.50;;;;;;;15.88;35.57;96950.53;10347071;28;20041;-31
2023/03/01 03:32:09;;;;;;;4.10;3.73;;;;;;;15.90;36.56;96941.34;10330526;28;20030;-31
2023/03/01 03:38:01;;;;;;;3.93;3.40;;;;;;;15.90;35.61;96933.78;10334042;28;20544;-31
2023/03/01 03:42:30;;;;;;;4.07;3.60;;;;;;;15.88;35.22;96934.56;10341751;28;20040;-32
2023/03/01 03:47:30;;;;;;;3.97;3.47;;;;;;;15.91;34.68;96935.47;10342415;28;20048;-32
2023/03/01 03:52:30;;;;;;;5.43;4.00;;;;;;;15.92;35.50;96928.72;10340153;28;20042;-31
2023/03/01 03:57:31;;;;;;;4.50;4.10;;;;;;;15.91;35.78;96942.16;10340799;28;20042;-30
2023/03/01 04:02:31;;;;;;;5.20;4.23;;;;;;;15.95;34.23;96926.25;10344239;28;20072;-32
2023/03/01 04:07:31;;;;;;;5.17;4.23;;;;;;;15.98;33.79;96924.63;10323731;28;20046;-31
2023/03/01 04:12:34;;;;;;;7.37;5.57;;;;;;;15.88;35.77;96922.78;10350563;28;20286;-31
2023/03/01 04:17:35;;;;;;;7.50;4.90;;;;;;;15.92;37.60;96923.66;10329481;28;20132;-31
2023/03/01 04:22:35;;;;;;;8.07;4.20;;;;;;;15.96;38.40;96921.19;10343382;28;20410;-34
2023/03/01 04:27:36;;;;;;;9.83;4.73;;;;;;;16.01;38.59;96909.50;10328252;28;20034;-31
2023/03/01 04:32:36;;;;;;;6.05;3.80;;;;;;;16.00;38.54;96902.75;10351350;28;20061;-31
2023/03/01 04:37:37;;;;;;;4.73;3.33;;;;;;;15.96;37.43;96890.06;10328419;28;20125;-31
2023/03/01 04:42:37;;;;;;;5.43;3.57;;;;;;;15.91;38.25;96896.72;10335958;28;20784;-31
2023/03/01 04:47:38;;;;;;;3.67;3.30;;;;;;;15.92;37.62;96906.00;10350558;28;20108;-32
2023/03/01 04:52:38;;;;;;;4.60;4.05;;;;;;;15.92;37.86;96886.66;10344717;28;20034;-31
2023/03/01 04:57:39;;;;;;;6.23;3.67;;;;;;;15.97;37.68;96902.72;10339475;28;20030;-32
2023/03/01 05:02:39;;;;;;;4.72;4.07;;;;;;;15.99;37.68;96896.00;10349637;28;20042;-31
2023/03/01 05:07:40;;;;;;;4.67;3.67;;;;;;;15.97;36.86;96885.06;10349201;28;20042;-31
2023/03/01 05:12:40;;;;;;;4.17;3.53;;;;;;;16.03;36.65;96885.09;10366338;28;20041;-31
2023/03/01 05:17:41;;;;;;;4.50;3.67;;;;;;;16.04;36.76;96879.22;10357613;28;20039;-31
2023/03/01 05:22:41;;;;;;;5.93;4.17;;;;;;;16.06;36.58;96870.00;10343534;28;20034;-31
2023/03/01 05:27:41;;;;;;;4.23;3.70;;;;;;;16.06;36.83;96876.72;10329737;28;20038;-30
2023/03/01 05:32:44;;;;;;;5.47;3.83;;;;;;;16.04;34.72;96864.06;10356698;28;20408;-32
2023/03/01 05:37:47;;;;;;;3.70;3.40;;;;;;;16.06;35.24;96862.44;10327094;28;20237;-32
2023/03/01 05:42:53;;;;;;;5.38;3.90;;;;;;;16.04;36.09;96866.59;10336904;28;20035;-32
2023/03/01 05:47:54;;;;;;;5.63;3.35;;;;;;;16.07;39.65;96865.78;10337145;28;20035;-31
2023/03/01 05:52:59;;;;;;;6.50;4.22;;;;;;;16.07;38.47;96869.19;10345352;28;20053;-31
2023/03/01 05:58:02;;;;;;;6.55;4.30;;;;;;;16.08;37.71;96860.75;10349607;28;20029;-31
2023/03/01 06:03:03;;;;;;;7.28;5.28;;;;;;;16.02;35.78;96860.69;10361299;28;20030;-32
2023/03/01 06:08:03;;;;;;;6.47;4.93;;;;;;;16.05;36.65;96864.94;10349854;28;20042;-31
2023/03/01 06:13:04;;;;;;;6.82;4.60;;;;;;;15.99;35.53;96857.28;10345355;28;20092;-31
2023/03/01 06:18:04;;;;;;;6.30;5.32;;;;;;;15.97;34.10;96852.22;10340098;28;20039;-31
2023/03/01 06:23:05;;;;;;;6.33;5.33;;;;;;;15.92;33.97;96863.94;10345221;28;20049;-31
2023/03/01 06:28:05;;;;;;;39.53;11.20;;;;;;;15.88;35.41;96866.41;10336608;28;20576;-32
2023/03/01 06:33:05;;;;;;;13.20;8.33;;;;;;;15.50;34.20;96863.38;10343766;28;20376;-31
2023/03/01 06:38:07;;;;;;;12.13;7.97;;;;;;;15.73;35.21;96874.63;10340163;28;20018;-32
2023/03/01 06:43:07;;;;;;;9.30;6.15;;;;;;;15.75;35.38;96855.31;10334547;28;20113;-31
2023/03/01 06:48:07;;;;;;;12.93;7.00;;;;;;;15.72;35.39;96865.38;10346292;28;20084;-31
2023/03/01 06:53:08;;;;;;;8.33;5.93;;;;;;;15.81;35.54;96864.63;10347317;28;20045;-31
2023/03/01 06:58:08;;;;;;;7.37;5.93;;;;;;;15.81;35.14;96865.50;10343987;28;20034;-31
2023/03/01 07:03:09;;;;;;;10.35;5.75;;;;;;;15.81;35.46;96867.16;10338260;28;20662;-31
2023/03/01 07:08:09;;;;;;;9.17;5.60;;;;;;;15.82;35.77;96871.38;10336052;28;20553;-32
2023/03/01 07:13:09;;;;;;;5.07;4.53;;;;;;;15.90;37.39;96868.13;10338605;28;20042;-31
2023/03/01 07:18:10;;;;;;;6.00;5.23;;;;;;;15.96;37.20;96868.19;10345963;28;20035;-32
2023/03/01 07:23:10;;;;;;;8.03;4.97;;;;;;;15.96;36.28;96869.88;10346735;28;20646;-32
2023/03/01 07:28:10;;;;;;;5.93;4.37;;;;;;;15.92;36.26;96868.97;10336943;28;20308;-31
2023/03/01 07:33:11;;;;;;;4.87;4.30;;;;;;;15.88;36.54;96852.09;10318805;28;20765;-31
2023/03/01 07:38:11;;;;;;;4.80;4.30;;;;;;;15.90;36.52;96850.44;10346424;28;20030;-31
2023/03/01 07:43:12;;;;;;;6.43;4.57;;;;;;;15.86;35.90;96847.88;10342690;28;20138;-31
2023/03/01 07:48:12;;;;;;;6.23;4.80;;;;;;;15.89;36.81;96850.44;10336916;28;20042;-30
2023/03/01 07:53:12;;;;;;;5.70;4.73;;;;;;;15.84;36.10;96845.31;10346381;28;20115;-32
2023/03/01 07:58:13;;;;;;;4.70;4.20;;;;;;;15.87;36.24;96842.81;10328802;28;20050;-31
2023/03/01 08:03:13;;;;;;;5.93;4.30;;;;;;;15.84;36.48;96845.31;10336602;28;20046;-31
2023/03/01 08:08:13;;;;;;;6.00;4.33;;;;;;;15.85;36.83;96841.97;10329142;28;20494;-31
2023/03/01 08:13:16;;;;;;;4.90;3.83;;;;;;;15.83;35.99;96841.09;10337724;28;20057;-31
2023/03/01 08:18:18;;;;;;;4.75;4.18;;;;;;;15.86;36.71;96842.81;10330707;28;20069;-32
2023/03/01 08:23:18;;;;;;;5.38;4.40;;;;;;;15.84;36.38;96839.41;10344297;28;20041;-31
2023/03/01 08:28:18;;;;;;;7.13;4.47;;;;;;;15.82;35.91;96841.06;10350412;28;20506;-31
2023/03/01 08:33:19;;;;;;;5.60;4.50;;;;;;;15.82;36.22;96831.84;10335743;28;20038;-31
2023/03/01 08:38:19;;;;;;;4.23;3.83;;;;;;;15.89;38.28;96835.28;10350549;28;20034;-31
2023/03/01 08:43:19;;;;;;;4.10;3.70;;;;;;;15.89;38.31;96838.66;10343177;28;20045;-31
2023/03/01 08:48:20;;;;;;;5.67;4.43;;;;;;;15.88;37.97;96836.94;10336759;28;20129;-31
2023/03/01 08:53:20;;;;;;;4.10;3.70;;;;;;;15.85;35.89;96836.09;10358731;28;20029;-31
2023/03/01 08:58:20;;;;;;;5.33;4.83;;;;;;;15.81;34.80;96835.19;10342198;28;20295;-33
2023/03/01 09:03:23;;;;;;;4.90;4.37;;;;;;;15.83;34.34;96827.63;10344189;28;20030;-31
2023/03/01 09:08:24;;;;;;;4.75;4.25;;;;;;;15.81;33.90;96820.06;10342558;28;20038;-31
2023/03/01 09:13:24;;;;;;;6.03;4.43;;;;;;;15.81;34.02;96817.53;10365682;28;20038;-31
2023/03/01 09:18:25;;;;;;;4.53;4.07;;;;;;;15.80;34.56;96803.22;10329967;28;20093;-31
2023/03/01 09:23:25;;;;;;;5.17;4.13;;;;;;;15.79;33.65;96800.66;10326281;28;20049;-31
2023/03/01 09:28:26;;;;;;;5.63;4.03;;;;;;;15.77;34.11;96788.00;10338873;28;20038;-31
2023/03/01 09:33:28;;;;;;;4.80;4.07;;;;;;;15.76;33.66;96796.41;10334389;28;20305;-31
2023/03/01 09:38:29;;;;;;;5.40;4.60;;;;;;;15.76;34.01;96811.56;10335182;28;20036;-31
2023/03/01 09:43:43;;;;;;;4.30;3.85;;;;;;;15.76;34.01;96809.03;10348746;28;20038;-32
2023/03/01 09:49:03;;;;;;;4.63;3.95;;;;;;;15.75;33.83;96809.88;10342531;28;20034;-30
2023/03/01 09:54:08;;;;;;;4.65;4.05;;;;;;;15.77;34.35;96825.88;10350483;28;20045;-31
2023/03/01 09:59:18;;;;;;;4.07;3.33;;;;;;;15.85;37.97;96819.25;10358418;28;20030;-31
2023/03/01 10:04:37;;;;;;;4.53;3.40;;;;;;;15.84;38.50;96817.56;10338775;28;20037;-31
2023/03/01 10:09:41;;;;;;;4.40;3.70;;;;;;;15.85;37.98;96811.66;10326665;28;20080;-31
2023/03/01 10:14:51;;;;;;;4.88;3.92;;;;;;;15.84;34.35;96793.97;10344342;28;20062;-31
2023/03/01 10:19:51;;;;;;;5.22;4.18;;;;;;;15.79;34.02;96791.41;10333314;28;20498;-31
2023/03/01 10:24:53;;;;;;;4.93;3.97;;;;;;;15.76;33.74;96791.38;10355485;28;20042;-32
2023/03/01 10:30:05;;;;;;;4.47;4.00;;;;;;;15.75;33.58;96784.63;10344841;28;20068;-31
2023/03/01 10:35:35;;;;;;;6.05;4.03;;;;;;;15.74;33.65;96792.19;10352287;28;20040;-31
2023/03/01 10:40:49;;;;;;;5.13;4.38;;;;;;;15.73;33.69;96786.31;10323397;28;20038;-31
2023/03/01 10:45:50;;;;;;;5.03;4.50;;;;;;;15.71;33.93;96784.59;10334495;28;20516;-32
2023/03/01 10:51:05;;;;;;;4.68;4.00;;;;;;;15.71;33.54;96782.88;10341700;28;20038;-31
2023/03/01 10:56:08;;;;;;;4.45;3.92;;;;;;;15.69;33.80;96771.94;10344078;28;20497;-31
2023/03/01 11:01:15;;;;;;;5.15;4.38;;;;;;;15.70;33.86;96765.22;10343317;28;20040;-31
2023/03/01 11:06:22;;;;;;;5.13;4.20;;;;;;;15.70;33.78;96758.47;10340577;28;20053;-31
2023/03/01 11:11:25;;;;;;;4.57;4.13;;;;;;;15.72;33.93;96753.47;10360157;28;20498;-30
2023/03/01 11:16:27;;;;;;;4.85;4.10;;;;;;;15.73;34.05;96750.09;10340298;28;20454;-32
2023/03/01 11:21:32;;;;;;;4.13;3.33;;;;;;;15.81;34.93;96751.91;10330702;28;20037;-31
2023/03/01 11:26:38;;;;;;;7.05;3.13;;;;;;;15.82;38.03;96733.41;10354886;28;20049;-31
2023/03/01 11:31:40;;;;;;;5.47;4.00;;;;;;;15.91;35.79;96730.09;10346485;28;20041;-32
2023/03/01 11:36:48;;;;;;;4.28;3.88;;;;;;;15.92;34.39;96722.56;10345807;28;20068;-30
2023/03/01 11:41:52;;;;;;;4.72;3.78;;;;;;;15.90;34.88;96721.69;10329420;28;20046;-31
2023/03/01 11:47:11;;;;;;;4.68;4.03;;;;;;;15.91;35.67;96725.06;10337981;28;20096;-32
2023/03/01 11:53:16;;;;;;;3.85;3.28;;;;;;;15.85;37.13;96709.88;10333976;28;20033;-31
2023/03/01 11:58:35;;;;;;;4.70;3.97;;;;;;;15.90;36.98;96708.22;10185270;28;20565;-31
2023/03/01 12:03:54;;;;;;;7.57;4.03;;;;;;;15.91;36.22;96705.72;10318943;28;20038;-31
2023/03/01 12:09:21;;;;;;;4.50;3.70;;;;;;;15.90;36.65;96706.56;10350101;28;20042;-31
2023/03/01 12:14:45;;;;;;;6.60;4.13;;;;;;;15.95;35.68;96699.03;10327411;28;20042;-31
2023/03/01 12:20:01;;;;;;;4.32;3.80;;;;;;;15.94;35.33;96694.81;10320491;28;20045;-31
2023/03/01 12:25:26;;;;;;;5.63;3.40;;;;;;;15.95;35.57;96692.28;10331500;28;20072;-32
2023/03/01 12:30:27;;;;;;;11.25;6.03;;;;;;;15.98;36.36;96687.28;10333840;28;20043;-31
2023/03/01 12:35:56;;;;;;;7.03;5.00;;;;;;;15.96;36.73;96683.88;10342949;28;20457;-31
2023/03/01 12:41:18;;;;;;;7.65;4.60;;;;;;;15.98;35.25;96672.13;10288738;28;20101;-31
2023/03/01 12:46:52;;;;;;;25.02;14.50;;;;;;;16.06;36.23;96668.00;10343325;28;20052;-31
2023/03/01 12:52:13;;;;;;;27.48;12.85;;;;;;;16.09;37.03;96662.94;10321931;28;20038;-32
2023/03/01 12:57:40;;;;;;;33.83;19.13;;;;;;;16.08;36.86;96656.22;10335312;28;20042;-31
2023/03/01 13:02:54;;;;;;;32.85;20.65;;;;;;;15.95;36.12;96651.88;10326025;28;20064;-32
2023/03/01 13:08:06;;;;;;;46.95;26.73;;;;;;;15.82;47.10;96645.03;10343912;28;20049;-31
2023/03/01 13:13:20;;;;;;;18.00;11.30;;;;;;;15.90;36.16;96638.38;10338562;28;20512;-31
2023/03/01 13:18:25;;;;;;;16.80;9.43;;;;;;;15.95;35.26;96641.78;10334019;28;20034;-31
2023/03/01 13:23:29;;;;;;;12.85;9.27;;;;;;;15.94;35.39;96630.00;10331247;28;20058;-31
2023/03/01 13:28:35;;;;;;;12.50;8.77;;;;;;;15.91;34.66;96632.50;10322712;28;20467;-31
2023/03/01 13:33:46;;;;;;;41.90;17.47;;;;;;;15.91;37.18;96634.16;10356021;28;20414;-31
2023/03/01 13:38:55;;;;;;;14.60;8.80;;;;;;;15.89;35.07;96630.78;10341679;28;20034;-30
2023/03/01 13:43:55;;;;;;;13.82;9.25;;;;;;;15.80;34.94;96616.44;10338390;28;20049;-31
2023/03/01 13:48:57;;;;;;;16.02;9.95;;;;;;;15.89;34.41;96635.84;10334103;28;20045;-32
2023/03/01 13:53:58;;;;;;;13.02;9.48;;;;;;;15.88;34.14;96629.94;10334196;28;20421;-31
2023/03/01 13:59:04;;;;;;;14.40;9.93;;;;;;;15.88;34.43;96629.94;10349757;28;20054;-32
2023/03/01 14:04:21;;;;;;;14.65;9.02;;;;;;;15.84;34.29;96628.22;10339645;28;20453;-32
2023/03/01 14:09:31;;;;;;;16.67;9.95;;;;;;;15.89;34.58;96626.59;10333558;28;20038;-31
2023/03/01 14:14:41;;;;;;;31.30;18.65;;;;;;;15.97;40.70;96624.13;10332781;28;20069;-31
2023/03/01 14:19:45;;;;;;;35.88;18.80;;;;;;;15.98;40.89;96610.66;10332781;28;20061;-32
2023/03/01 14:25:16;;;;;;;15.15;10.43;;;;;;;15.96;35.66;96607.28;10333829;28;20065;-33
2023/03/01 14:30:27;;;;;;;15.45;9.60;;;;;;;15.90;34.40;96608.09;10331009;28;20030;-31
2023/03/01 14:35:30;;;;;;;28.92;10.98;;;;;;;15.83;35.60;96596.25;10340101;28;20042;-30
2023/03/01 14:40:34;;;;;;;10.32;7.13;;;;;;;15.84;42.14;96599.59;10339076;28;20042;-31
2023/03/01 14:45:35;;;;;;;9.38;7.40;;;;;;;15.84;35.39;96587.84;10346526;28;20030;-31
2023/03/01 14:50:42;;;;;;;8.27;6.70;;;;;;;15.84;34.45;96586.97;10340405;28;20415;-31
2023/03/01 14:55:48;;;;;;;14.63;9.60;;;;;;;15.78;35.53;96586.97;10330415;28;20030;-30
2023/03/01 15:00:59;;;;;;;12.77;8.57;;;;;;;15.83;35.50;96586.16;10315528;28;20031;-31
2023/03/01 15:06:04;;;;;;;11.93;7.85;;;;;;;15.93;35.02;96592.13;10330452;28;20069;-31
2023/03/01 15:11:21;;;;;;;11.88;8.32;;;;;;;15.96;36.08;96582.03;10331192;28;20030;-30
2023/03/01 15:16:33;;;;;;;16.95;10.10;;;;;;;16.01;37.75;96581.25;10328181;28;20066;-32
2023/03/01 15:21:36;;;;;;;10.77;8.05;;;;;;;15.93;36.45;96587.91;10345605;28;20049;-31
2023/03/01 15:26:43;;;;;;;13.48;8.85;;;;;;;15.98;36.36;96586.28;10322242;28;20034;-31
2023/03/01 15:31:57;;;;;;;15.93;9.10;;;;;;;16.06;36.41;96573.69;10346136;28;20040;-31
2023/03/01 15:37:00;;;;;;;30.67;17.10;;;;;;;16.13;42.60;96571.22;10340216;28;20103;-31
2023/03/01 15:42:00;;;;;;;30.98;17.27;;;;;;;16.21;40.99;96578.84;10334602;28;20490;-30
2023/03/01 15:47:05;;;;;;;22.77;13.50;;;;;;;16.23;39.32;96578.03;10322446;28;20042;-31
2023/03/01 15:52:12;;;;;;;24.88;16.15;;;;;;;16.09;39.84;96579.63;10334240;28;21001;-31
2023/03/01 15:57:14;;;;;;;;;;;;;;;15.70;40.86;96578.47;10349863;28;20034;-31
2023/03/01 16:02:15;;;;;;;17.85;11.10;;;;;;;15.75;42.04;96580.19;10327814;28;19924;-31
2023/03/01 16:07:16;;;;;;;21.88;12.98;;;;;;;15.72;42.61;96571.75;10335625;28;20513;-31
2023/03/01 16:12:16;;;;;;;20.30;12.88;;;;;;;15.77;42.83;96580.22;10332169;28;20084;-31
2023/03/01 16:17:17;;;;;;;21.45;13.27;;;;;;;15.74;43.82;96577.66;10333087;28;20038;-31
2023/03/01 16:22:17;;;;;;;26.90;15.07;;;;;;;15.74;44.02;96586.09;10340222;28;20498;-31
2023/03/01 16:27:20;;;;;;;23.30;14.13;;;;;;;15.76;44.39;96588.63;10322666;28;20034;-31
2023/03/01 16:32:20;;;;;;;21.67;14.10;;;;;;;15.73;44.28;96581.88;10328458;28;20026;-31
2023/03/01 16:37:21;;;;;;;28.97;15.13;;;;;;;15.64;44.36;96593.56;10340222;28;20026;-31
2023/03/01 16:42:22;;;;;;;36.30;14.05;;;;;;;15.84;46.09;96592.88;10343244;28;20312;-31
2023/03/01 16:47:22;;;;;;;23.90;13.47;;;;;;;15.84;43.08;96597.94;10327212;28;20052;-31
2023/03/01 16:52:23;;;;;;;26.48;11.13;;;;;;;15.82;42.52;96604.66;10330606;28;20317;-31
2023/03/01 16:57:25;;;;;;;23.08;11.80;;;;;;;15.79;43.41;96609.66;10321767;28;20035;-31
2023/03/01 17:02:26;;;;;;;26.35;13.32;;;;;;;15.81;45.27;96610.53;10328632;28;20064;-33
2023/03/01 17:07:27;;;;;;;23.77;12.10;;;;;;;15.81;44.79;96618.13;10334891;28;20049;-31
2023/03/01 17:12:27;;;;;;;20.60;12.15;;;;;;;15.79;44.20;96608.84;10331833;28;20052;-31
2023/03/01 17:17:28;;;;;;;20.88;12.27;;;;;;;15.80;43.60;96613.91;10341182;28;20125;-31
2023/03/01 17:22:28;;;;;;;19.43;12.23;;;;;;;15.79;43.73;96622.28;10333954;28;20030;-31
2023/03/01 17:27:29;;;;;;;22.87;12.17;;;;;;;15.79;43.02;96613.88;10334979;28;20053;-30
2023/03/01 17:32:29;;;;;;;18.08;11.57;;;;;;;15.66;43.62;96620.50;10358106;28;20300;-32
2023/03/01 17:37:29;;;;;;;20.90;11.67;;;;;;;15.75;44.06;96623.09;10342098;28;20054;-31
2023/03/01 17:42:30;;;;;;;16.37;11.43;;;;;;;15.75;44.01;96625.63;10328881;28;20808;-36
2023/03/01 17:47:30;;;;;;;18.37;10.70;;;;;;;15.78;43.23;96635.75;10345344;28;20038;-32
2023/03/01 17:52:30;;;;;;;16.63;10.10;;;;;;;15.78;42.64;96645.84;10349717;28;20384;-31
2023/03/01 17:57:31;;;;;;;14.50;9.97;;;;;;;15.79;43.14;96652.56;10341882;28;20482;-32
2023/03/01 18:02:31;;;;;;;13.57;9.33;;;;;;;15.83;41.95;96653.44;10333410;28;20046;-31
2023/03/01 18:07:31;;;;;;;14.43;9.33;;;;;;;15.88;41.90;96664.44;10341277;28;20042;-31
2023/03/01 18:12:32;;;;;;;16.27;10.27;;;;;;;15.93;41.59;96652.72;10332266;28;20069;-31
2023/03/01 18:17:34;;;;;;;14.77;9.80;;;;;;;15.92;43.37;96641.75;10332372;28;20406;-33
2023/03/01 18:22:34;;;;;;;17.15;9.55;;;;;;;15.95;42.66;96651.06;10323267;28;20181;-31
2023/03/01 18:27:35;;;;;;;20.47;9.90;;;;;;;15.91;45.89;96650.19;10340507;28;20038;-32
2023/03/01 18:32:38;;;;;;;26.40;9.70;;;;;;;15.95;44.25;96651.06;10344735;28;20038;-32
2023/03/01 18:37:38;;;;;;;15.25;10.13;;;;;;;15.93;44.33;96653.56;10348956;28;20034;-32
2023/03/01 18:42:39;;;;;;;18.07;9.60;;;;;;;15.89;43.82;96654.38;10321483;28;20668;-32
2023/03/01 18:47:40;;;;;;;21.33;10.80;;;;;;;15.89;44.83;96661.94;10322827;28;20030;-31
2023/03/01 18:52:40;;;;;;;14.02;9.98;;;;;;;15.81;46.00;96658.50;10337790;28;20030;-31
2023/03/01 18:57:40;;;;;;;17.23;9.17;;;;;;;15.86;44.54;96651.81;10320356;28;20102;-31
2023/03/01 19:02:41;;;;;;;18.07;9.40;;;;;;;15.83;45.18;96650.91;10315772;28;20035;-32
2023/03/01 19:07:41;;;;;;;14.57;8.53;;;;;;;15.84;43.16;96653.47;10311973;28;20039;-31
2023/03/01 19:12:41;;;;;;;15.63;9.67;;;;;;;15.80;44.11;96653.44;10324585;28;20038;-32
2023/03/01 19:17:43;;;;;;;16.90;8.87;;;;;;;15.72;43.60;96648.31;10317755;28;20042;-32
2023/03/01 19:22:43;;;;;;;13.55;8.93;;;;;;;15.85;44.60;96641.72;10336696;28;20121;-31
2023/03/01 19:27:43;;;;;;;15.80;9.93;;;;;;;15.85;45.62;96634.97;10350119;28;20115;-31
2023/03/01 19:32:44;;;;;;;17.37;9.90;;;;;;;15.89;46.31;96635.84;10332897;28;20124;-32
2023/03/01 19:37:44;;;;;;;13.57;8.97;;;;;;;15.85;46.40;96629.91;10334756;28;20371;-31
2023/03/01 19:42:44;;;;;;;17.80;9.38;;;;;;;15.88;45.71;96634.97;10340124;28;20038;-31
2023/03/01 19:47:47;;;;;;;18.57;9.80;;;;;;;15.83;46.03;96631.59;10336032;28;20049;-31
2023/03/01 19:52:47;;;;;;;12.40;8.73;;;;;;;15.82;46.43;96627.38;10336866;28;20038;-31
2023/03/01 19:57:47;;;;;;;16.53;8.47;;;;;;;15.83;45.47;96621.50;10343840;28;20447;-30
2023/03/01 20:02:48;;;;;;;11.90;8.13;;;;;;;15.83;45.25;96621.50;10337320;28;20041;-31
2023/03/01 20:07:49;;;;;;;13.30;8.00;;;;;;;15.82;45.99;96614.75;10342720;28;20482;-30
2023/03/01 20:12:50;;;;;;;11.10;8.00;;;;;;;15.83;45.50;96616.44;10338923;28;20042;-31
2023/03/01 20:17:50;;;;;;;13.63;8.27;;;;;;;15.80;45.76;96624.00;10325759;28;21351;-32
2023/03/01 20:22:51;;;;;;;10.03;7.57;;;;;;;15.81;46.04;96602.97;10331983;28;20088;-32
2023/03/01 20:27:51;;;;;;;13.50;8.57;;;;;;;15.85;45.69;96612.25;10323657;28;20045;-31
2023/03/01 20:32:52;;;;;;;11.97;7.00;;;;;;;15.84;45.85;96617.28;10339780;28;21590;-31
2023/03/01 20:37:52;;;;;;;11.25;7.65;;;;;;;15.84;45.83;96603.00;10316860;28;20042;-31
2023/03/01 20:42:57;;;;;;;11.87;8.27;;;;;;;15.90;45.05;96604.72;10327992;28;20559;-32
2023/03/01 20:47:57;;;;;;;11.38;8.38;;;;;;;15.88;46.54;96599.63;10307078;28;20819;-30
2023/03/01 20:52:58;;;;;;;12.10;7.10;;;;;;;15.90;46.99;96595.47;10339089;28;20027;-31
2023/03/01 20:57:58;;;;;;;11.30;7.57;;;;;;;15.88;47.25;96589.53;10330117;28;20648;-31
2023/03/01 21:02:58;;;;;;;13.17;8.27;;;;;;;15.89;47.75;96581.16;10329011;28;20050;-31
2023/03/01 21:08:01;;;;;;;11.30;7.03;;;;;;;15.92;47.27;96568.56;10339668;28;20030;-31
2023/03/01 21:13:01;;;;;;;12.23;7.60;;;;;;;15.85;47.48;96558.41;10338828;28;20112;-31
2023/03/01 21:18:02;;;;;;;10.70;7.40;;;;;;;15.91;47.61;96564.34;10343110;28;20026;-31
2023/03/01 21:23:02;;;;;;;11.17;6.77;;;;;;;15.89;47.59;96558.44;10337700;28;20553;-31
2023/03/01 21:28:03;;;;;;;10.07;6.70;;;;;;;15.93;47.60;96572.75;10347078;28;20303;-32
2023/03/01 21:33:03;;;;;;;10.35;6.82;;;;;;;15.92;47.41;96566.03;10318080;28;20057;-33
2023/03/01 21:38:03;;;;;;;8.83;6.47;;;;;;;15.95;46.45;96561.00;10335356;28;20105;-32
2023/03/01 21:43:04;;;;;;;8.77;6.43;;;;;;;15.94;47.64;96556.78;10324863;28;20034;-31
2023/03/01 21:48:04;;;;;;;9.80;7.30;;;;;;;15.88;46.97;96539.06;10338535;28;20402;-32
2023/03/01 21:53:04;;;;;;;8.07;6.00;;;;;;;15.90;47.03;96539.94;10350921;28;20124;-32
2023/03/01 21:58:05;;;;;;;8.70;6.63;;;;;;;15.93;47.57;96539.94;10334169;28;20042;-31
2023/03/01 22:03:05;;;;;;;10.80;7.80;;;;;;;15.93;47.93;96537.41;10346101;28;20794;-35
2023/03/01 22:08:06;;;;;;;8.38;5.72;;;;;;;15.94;47.11;96530.72;10350244;28;20406;-31
2023/03/01 22:13:07;;;;;;;10.60;6.20;;;;;;;15.88;48.13;96526.44;10341654;28;20030;-31
2023/03/01 22:18:10;;;;;;;11.50;7.37;;;;;;;15.85;47.73;96528.94;10345962;28;20027;-31
2023/03/01 22:23:10;;;;;;;7.82;5.75;;;;;;;15.82;48.26;96518.84;10349474;28;20509;-31
2023/03/01 22:28:10;;;;;;;9.03;5.73;;;;;;;15.82;47.86;96526.41;10348732;28;20040;-31
2023/03/01 22:33:11;;;;;;;9.47;6.70;;;;;;;15.81;47.86;96516.28;10343981;28;20301;-31
2023/03/01 22:38:11;;;;;;;10.17;7.20;;;;;;;15.78;47.85;96504.50;10315815;28;20634;-32
2023/03/01 22:43:11;;;;;;;8.40;5.93;;;;;;;15.77;48.38;96500.28;10333408;28;20069;-31
2023/03/01 22:48:12;;;;;;;8.40;6.03;;;;;;;15.77;48.26;96499.47;10342895;28;20093;-31
2023/03/01 22:53:13;;;;;;;8.43;5.90;;;;;;;15.77;48.02;96494.41;10339490;28;20038;-31
2023/03/01 22:58:13;;;;;;;7.20;5.38;;;;;;;15.76;48.42;96498.59;10334601;28;20038;-31
2023/03/01 23:03:16;;;;;;;9.23;6.17;;;;;;;15.77;48.18;96500.28;10327242;28;20035;-31
2023/03/01 23:08:16;;;;;;;10.30;6.32;;;;;;;15.73;48.09;96496.06;10331720;28;20049;-31
2023/03/01 23:13:16;;;;;;;8.87;5.90;;;;;;;15.75;47.86;96501.97;10331876;28;20038;-31
2023/03/01 23:18:17;;;;;;;8.03;5.80;;;;;;;15.81;48.60;96486.00;10337847;28;20038;-31
2023/03/01 23:23:17;;;;;;;7.20;5.30;;;;;;;15.82;48.26;96478.44;10330585;28;20041;-32
2023/03/01 23:28:17;;;;;;;9.00;6.17;;;;;;;15.82;47.54;96475.06;10346787;28;20038;-31
2023/03/01 23:33:18;;;;;;;7.20;5.33;;;;;;;15.79;47.86;96470.84;10324665;28;20043;-31